Time;durP1;ratioP1;P1;durP2;ratioP2;P2;SDS_P1;SDS_P2;PMS_P1;PMS_P2;Temp;Humidity;BMP_temperature;BMP_pressure;BME280_temperature;BME280_humidity;BME280_pressure;Samples;Min_cycle;Max_cycle;Signal;HPM_P1;HPM_P2
2021/10/29 00:18:38;;;;;;;12.88;8.65;;;;;;;;;;5054834;27;20129;-58
2021/10/29 00:21:04;;;;;;;11.90;7.72;;;;;;;;;;4384949;32;20133;-60
2021/10/29 00:23:31;;;;;;;13.45;8.98;;;;;;;;;;4389140;32;20113;-60
2021/10/29 00:26:00;;;;;;;13.80;8.68;;;;;;;;;;4363172;32;20117;-60
2021/10/29 00:28:26;;;;;;;10.50;8.40;;;;;;;;;;4368040;32;20113;-60
2021/10/29 00:30:52;;;;;;;14.50;9.27;;;;;;;;;;4378040;32;20108;-70
2021/10/29 00:33:18;;;;;;;13.05;8.68;;;;;;;;;;4378128;32;20125;-70
2021/10/29 00:35:44;;;;;;;11.18;8.80;;;;;;;;;;4364030;32;20092;-70
2021/10/29 00:38:14;;;;;;;13.02;8.65;;;;;;;;;;4350833;32;20101;-59
2021/10/29 00:40:40;;;;;;;12.05;9.02;;;;;;;;;;4324621;32;20090;-60
2021/10/29 00:43:07;;;;;;;13.23;9.05;;;;;;;;;;4362965;32;20117;-60
2021/10/29 00:45:34;;;;;;;13.15;8.18;;;;;;;;;;4362968;32;20086;-59
2021/10/29 00:48:00;;;;;;;13.10;8.98;;;;;;;;;;4362925;32;20197;-70
2021/10/29 00:50:25;;;;;;;12.80;8.82;;;;;;;;;;4349065;32;20106;-70
2021/10/29 00:52:52;;;;;;;15.23;8.75;;;;;;;;;;4362942;32;20141;-70
2021/10/29 00:55:18;;;;;;;10.48;8.45;;;;;;;;;;4361729;32;20093;-69
2021/10/29 00:57:44;;;;;;;13.13;8.52;;;;;;;;;;4377863;32;20123;-70
2021/10/29 01:00:11;;;;;;;11.15;8.70;;;;;;;;;;4377955;32;20128;-69
2021/10/29 01:02:37;;;;;;;15.68;8.75;;;;;;;;;;4363865;32;20120;-69
2021/10/29 01:05:04;;;;;;;10.88;7.82;;;;;;;;;;4363603;32;20137;-70
2021/10/29 01:07:33;;;;;;;13.70;8.40;;;;;;;;;;4364071;32;20101;-66
2021/10/29 01:09:59;;;;;;;12.07;8.00;;;;;;;;;;4377594;32;20197;-68
2021/10/29 01:12:25;;;;;;;12.77;8.02;;;;;;;;;;4339414;32;20121;-69
2021/10/29 01:15:00;;;;;;;11.27;8.00;;;;;;;;;;4363858;32;20121;-67
2021/10/29 01:17:26;;;;;;;12.67;9.10;;;;;;;;;;4336785;32;20105;-69
2021/10/29 01:19:53;;;;;;;11.07;8.50;;;;;;;;;;4362699;32;20130;-68
2021/10/29 01:22:20;;;;;;;12.90;8.90;;;;;;;;;;4376245;32;20120;-68
2021/10/29 01:24:46;;;;;;;16.40;9.13;;;;;;;;;;4377633;32;20117;-69
2021/10/29 01:27:13;;;;;;;13.40;9.18;;;;;;;;;;4377561;32;20139;-69
2021/10/29 01:29:39;;;;;;;11.98;8.75;;;;;;;;;;4377367;32;20551;-69
2021/10/29 01:32:09;;;;;;;11.95;8.88;;;;;;;;;;4377762;32;20116;-69
2021/10/29 01:34:35;;;;;;;17.42;10.90;;;;;;;;;;4363875;32;20113;-68
2021/10/29 01:37:04;;;;;;;11.60;8.50;;;;;;;;;;4362373;32;20208;-69
2021/10/29 01:39:29;;;;;;;12.85;8.80;;;;;;;;;;4362477;32;20109;-69
2021/10/29 01:41:55;;;;;;;15.05;9.60;;;;;;;;;;4362692;32;20108;-69
2021/10/29 01:44:21;;;;;;;13.50;8.65;;;;;;;;;;4348758;32;20133;-69
2021/10/29 01:46:48;;;;;;;14.05;9.48;;;;;;;;;;4362449;32;20531;-67
2021/10/29 01:49:14;;;;;;;12.90;9.20;;;;;;;;;;4348830;32;20492;-68
2021/10/29 01:51:40;;;;;;;12.75;8.82;;;;;;;;;;4361989;32;20128;-67
2021/10/29 01:54:06;;;;;;;12.10;8.68;;;;;;;;;;4362284;32;20525;-70
2021/10/29 01:56:32;;;;;;;18.70;9.82;;;;;;;;;;4334356;33;20551;-68
2021/10/29 01:58:58;;;;;;;11.20;8.70;;;;;;;;;;4347640;33;20159;-68
2021/10/29 02:01:25;;;;;;;12.63;9.23;;;;;;;;;;4347510;33;20117;-69
2021/10/29 02:03:51;;;;;;;13.50;9.35;;;;;;;;;;4347169;33;20140;-66
2021/10/29 02:06:17;;;;;;;12.13;9.40;;;;;;;;;;4347433;33;20516;-68
2021/10/29 02:08:44;;;;;;;13.00;8.73;;;;;;;;;;4347162;33;20210;-68
2021/10/29 02:11:10;;;;;;;12.45;8.50;;;;;;;;;;4347435;33;20125;-68
2021/10/29 02:13:35;;;;;;;14.02;8.98;;;;;;;;;;4347198;33;20129;-68
2021/10/29 02:16:01;;;;;;;13.00;10.00;;;;;;;;;;4347044;33;20473;-67
2021/10/29 02:18:27;;;;;;;17.23;10.50;;;;;;;;;;4347020;33;20491;-67
2021/10/29 02:20:53;;;;;;;19.33;9.18;;;;;;;;;;4347236;33;20193;-69
2021/10/29 02:23:19;;;;;;;16.23;9.30;;;;;;;;;;4346989;32;20102;-66
2021/10/29 02:25:46;;;;;;;15.73;9.25;;;;;;;;;;4333560;33;20087;-70
2021/10/29 02:28:18;;;;;;;16.83;9.90;;;;;;;;;;4346927;33;20117;-68
2021/10/29 02:30:45;;;;;;;13.80;9.55;;;;;;;;;;4347007;33;20103;-69
2021/10/29 02:33:11;;;;;;;12.25;8.90;;;;;;;;;;4344454;32;20117;-69
2021/10/29 02:35:37;;;;;;;12.90;9.32;;;;;;;;;;4347956;32;20552;-70
2021/10/29 02:38:03;;;;;;;13.77;10.45;;;;;;;;;;4358381;32;20450;-67
2021/10/29 02:40:29;;;;;;;14.20;9.63;;;;;;;;;;4350755;32;20617;-59
2021/10/29 02:42:55;;;;;;;14.87;10.55;;;;;;;;;;4361702;32;20113;-61
2021/10/29 02:45:21;;;;;;;11.43;8.73;;;;;;;;;;4361512;32;20196;-61
2021/10/29 02:47:48;;;;;;;13.88;10.20;;;;;;;;;;4361583;32;20105;-60
2021/10/29 02:50:17;;;;;;;18.25;11.23;;;;;;;;;;4359406;32;20113;-60
2021/10/29 02:52:43;;;;;;;19.58;10.50;;;;;;;;;;4345714;32;20129;-60
2021/10/29 02:55:09;;;;;;;14.82;10.23;;;;;;;;;;4359185;32;20274;-60
2021/10/29 02:57:36;;;;;;;14.30;9.93;;;;;;;;;;4345872;32;20130;-60
2021/10/29 03:00:15;;;;;;;15.40;9.88;;;;;;;;;;4345942;32;20629;-60
2021/10/29 03:02:42;;;;;;;17.20;10.15;;;;;;;;;;4360928;32;20106;-60
2021/10/29 03:05:08;;;;;;;15.00;9.80;;;;;;;;;;4361520;32;20473;-60
2021/10/29 03:07:33;;;;;;;15.55;9.80;;;;;;;;;;4361675;32;20139;-60
2021/10/29 03:09:59;;;;;;;18.87;10.77;;;;;;;;;;4361549;32;20539;-60
2021/10/29 03:12:25;;;;;;;14.02;10.00;;;;;;;;;;4362198;32;20677;-60
2021/10/29 03:14:51;;;;;;;19.17;9.77;;;;;;;;;;4363486;32;20185;-60
2021/10/29 03:17:17;;;;;;;14.13;10.40;;;;;;;;;;4363985;32;20152;-60
2021/10/29 03:19:43;;;;;;;16.35;10.13;;;;;;;;;;4363643;32;20117;-59
2021/10/29 03:22:09;;;;;;;16.20;10.77;;;;;;;;;;4359168;32;20797;-60
2021/10/29 03:24:35;;;;;;;14.73;10.23;;;;;;;;;;4348648;33;20608;-60
2021/10/29 03:27:01;;;;;;;16.25;10.88;;;;;;;;;;4348748;33;20098;-60
2021/10/29 03:29:27;;;;;;;12.77;9.68;;;;;;;;;;4348839;33;20174;-60
2021/10/29 03:31:52;;;;;;;13.15;9.20;;;;;;;;;;4349127;33;20205;-60
2021/10/29 03:34:18;;;;;;;14.07;9.90;;;;;;;;;;4348707;33;20158;-60
2021/10/29 03:36:45;;;;;;;15.82;9.60;;;;;;;;;;4348759;33;20458;-60
2021/10/29 03:39:19;;;;;;;13.80;9.93;;;;;;;;;;4348674;33;20137;-61
2021/10/29 03:41:52;;;;;;;15.35;9.55;;;;;;;;;;4348789;33;20106;-60
2021/10/29 03:44:26;;;;;;;13.00;9.25;;;;;;;;;;4348563;33;20118;-60
2021/10/29 03:46:55;;;;;;;11.90;9.23;;;;;;;;;;4348942;33;20106;-61
2021/10/29 03:49:31;;;;;;;11.93;9.35;;;;;;;;;;4348521;33;20097;-60
2021/10/29 03:52:04;;;;;;;15.50;9.10;;;;;;;;;;4334893;33;20504;-60
2021/10/29 03:54:34;;;;;;;10.70;8.82;;;;;;;;;;4348861;33;20461;-61
2021/10/29 03:59:26;;;;;;;12.82;8.93;;;;;;;;;;4348237;33;20124;-60
2021/10/29 04:01:52;;;;;;;13.02;8.73;;;;;;;;;;4348701;33;20103;-60
2021/10/29 04:04:18;;;;;;;11.60;9.20;;;;;;;;;;4348402;33;20129;-60
2021/10/29 04:06:44;;;;;;;12.35;9.27;;;;;;;;;;4348533;33;20400;-61
2021/10/29 04:09:10;;;;;;;11.02;9.40;;;;;;;;;;4348383;33;20520;-61
2021/10/29 04:11:39;;;;;;;13.18;9.60;;;;;;;;;;4344877;32;20346;-60
2021/10/29 04:14:06;;;;;;;10.65;9.40;;;;;;;;;;4348364;33;20121;-59
2021/10/29 04:16:36;;;;;;;14.40;9.80;;;;;;;;;;4348012;32;20102;-60
2021/10/29 04:19:05;;;;;;;11.35;9.40;;;;;;;;;;4348455;33;20108;-61
2021/10/29 04:21:31;;;;;;;10.57;9.13;;;;;;;;;;4349662;32;20190;-58
2021/10/29 04:23:57;;;;;;;12.73;8.98;;;;;;;;;;4355081;32;20134;-60
2021/10/29 04:26:23;;;;;;;12.80;9.68;;;;;;;;;;4349105;32;20275;-60
2021/10/29 04:28:56;;;;;;;14.35;10.10;;;;;;;;;;4358939;32;20845;-60
2021/10/29 04:31:27;;;;;;;15.40;10.25;;;;;;;;;;4356137;32;20106;-60
2021/10/29 04:33:52;;;;;;;15.30;9.82;;;;;;;;;;4345661;32;20137;-60
2021/10/29 04:36:19;;;;;;;14.48;10.38;;;;;;;;;;4353154;32;20121;-60
2021/10/29 04:38:46;;;;;;;13.90;10.45;;;;;;;;;;4343641;32;20134;-61
2021/10/29 04:41:15;;;;;;;12.32;8.98;;;;;;;;;;4325151;32;20170;-60
2021/10/29 04:43:41;;;;;;;13.30;10.50;;;;;;;;;;4340242;32;20539;-60
2021/10/29 04:46:07;;;;;;;12.68;10.15;;;;;;;;;;4352731;32;20125;-61
2021/10/29 04:48:33;;;;;;;12.05;9.93;;;;;;;;;;4360900;32;20117;-59
2021/10/29 04:50:59;;;;;;;14.80;10.10;;;;;;;;;;4361801;32;20496;-59
2021/10/29 04:53:25;;;;;;;12.60;10.13;;;;;;;;;;4348646;32;20134;-59
2021/10/29 04:55:51;;;;;;;13.88;9.68;;;;;;;;;;4347322;33;20406;-59
2021/10/29 04:58:17;;;;;;;10.88;9.68;;;;;;;;;;4354483;32;20210;-59
2021/10/29 05:00:43;;;;;;;14.90;9.57;;;;;;;;;;4362757;32;20117;-59
2021/10/29 05:03:09;;;;;;;11.80;8.57;;;;;;;;;;4360339;32;20514;-62
2021/10/29 05:05:35;;;;;;;10.55;9.30;;;;;;;;;;4347847;33;20176;-59
2021/10/29 05:08:02;;;;;;;9.80;8.80;;;;;;;;;;4347275;32;20114;-59
2021/10/29 05:10:28;;;;;;;13.38;9.05;;;;;;;;;;4333718;33;20114;-60
2021/10/29 05:12:54;;;;;;;10.90;8.48;;;;;;;;;;4347740;32;20113;-59
2021/10/29 05:15:20;;;;;;;11.00;8.80;;;;;;;;;;4347147;33;20508;-60
2021/10/29 05:17:47;;;;;;;11.12;8.90;;;;;;;;;;4347296;32;20216;-60
2021/10/29 05:20:13;;;;;;;10.85;7.93;;;;;;;;;;4347453;33;20098;-60
2021/10/29 05:22:39;;;;;;;8.93;7.12;;;;;;;;;;4347177;32;20122;-60
2021/10/29 05:25:05;;;;;;;7.75;6.45;;;;;;;;;;4346767;33;20148;-60
2021/10/29 05:27:31;;;;;;;6.68;5.55;;;;;;;;;;4347023;32;20607;-60
